Time;durP1;ratioP1;P1;durP2;ratioP2;P2;SDS_P1;SDS_P2;PMS_P1;PMS_P2;Temp;Humidity;BMP_temperature;BMP_pressure;BME280_temperature;BME280_humidity;BME280_pressure;Samples;Min_cycle;Max_cycle;Signal;HPM_P1;HPM_P2
2024/03/28 00:00:15;;;;;;;;;;;;;;;17.00;59.12;98733.25;5072361;28;19935;-80
2024/03/28 00:02:40;;;;;;;;;;;;;;;16.99;59.59;98721.78;5072695;28;19948;-80
2024/03/28 00:05:05;;;;;;;;;;;;;;;17.03;59.05;98722.91;5071595;28;20349;-80
2024/03/28 00:07:31;;;;;;;;;;;;;;;17.02;59.48;98713.28;5071526;28;19920;-80
2024/03/28 00:09:56;;;;;;;;;;;;;;;16.99;60.07;98710.28;5072995;28;19916;-81
2024/03/28 00:12:21;;;;;;;;;;;;;;;17.02;59.86;98707.97;5072962;28;19913;-81
2024/03/28 00:14:46;;;;;;;;;;;;;;;17.03;60.11;98704.25;5072198;28;19915;-80
2024/03/28 00:17:12;;;;;;;;;;;;;;;17.02;59.77;98699.97;5072339;28;19912;-80
2024/03/28 00:19:37;;;;;;;;;;;;;;;17.00;60.29;98702.06;5071073;28;19931;-80
2024/03/28 00:22:02;;;;;;;;;;;;;;;16.99;60.07;98707.63;5072137;28;19943;-81
2024/03/28 00:24:27;;;;;;;;;;;;;;;17.02;59.59;98705.28;5070917;28;20392;-81
2024/03/28 00:26:53;;;;;;;;;;;;;;;17.03;60.11;98719.44;5072111;28;19913;-80
2024/03/28 00:29:18;;;;;;;;;;;;;;;17.04;60.66;98729.06;5071893;28;19920;-81
2024/03/28 00:31:43;;;;;;;;;;;;;;;17.01;59.77;98727.69;5072071;28;19912;-81
2024/03/28 00:34:08;;;;;;;;;;;;;;;17.04;59.92;98723.72;5072107;28;19913;-80
2024/03/28 00:36:34;;;;;;;;;;;;;;;17.04;59.44;98716.53;5071998;28;19959;-80
2024/03/28 00:38:59;;;;;;;;;;;;;;;17.05;60.06;98714.66;5071994;28;19913;-80
2024/03/28 00:41:24;;;;;;;;;;;;;;;17.05;60.21;98720.00;5072275;28;20384;-80
2024/03/28 00:43:49;;;;;;;;;;;;;;;17.02;59.93;98723.97;5071971;28;19919;-80
2024/03/28 00:46:15;;;;;;;;;;;;;;;16.99;60.50;98727.09;5070853;28;19912;-80
2024/03/28 00:48:40;;;;;;;;;;;;;;;17.02;60.31;98718.63;5071757;28;20003;-80
2024/03/28 00:51:05;;;;;;;;;;;;;;;17.03;59.94;98724.78;5071817;28;19913;-80
2024/03/28 00:53:30;;;;;;;;;;;;;;;17.03;60.33;98740.78;5071953;28;19919;-80
2024/03/28 00:55:58;;;;;;;;;;;;;;;17.05;60.20;98717.34;5071821;28;19916;-80
2024/03/28 00:58:23;;;;;;;;;;;;;;;17.04;60.25;98713.06;5071936;28;19912;-80
2024/03/28 01:00:49;;;;;;;;;;;;;;;17.07;60.35;98700.03;5072170;28;20436;-80
2024/03/28 01:03:15;;;;;;;;;;;;;;;17.06;60.85;98698.44;5071588;28;19921;-79
2024/03/28 01:05:40;;;;;;;;;;;;;;;17.12;60.42;98694.03;5070543;28;19966;-79
2024/03/28 01:08:06;;;;;;;;;;;;;;;17.06;60.20;98698.44;5070651;28;19981;-81
2024/03/28 01:10:31;;;;;;;;;;;;;;;17.07;60.40;98713.38;5073586;28;19981;-80
2024/03/28 01:12:56;;;;;;;;;;;;;;;17.09;60.07;98700.66;5078669;28;19927;-80
2024/03/28 01:15:22;;;;;;;;;;;;;;;17.07;60.52;98684.03;5078364;28;19919;-81
2024/03/28 01:17:47;;;;;;;;;;;;;;;17.10;60.33;98675.59;5078624;28;20000;-81
2024/03/28 01:20:12;;;;;;;;;;;;;;;17.06;60.69;98679.75;5077313;28;20289;-81
2024/03/28 01:22:38;;;;;;;;;;;;;;;17.04;60.43;98660.53;5078552;28;19919;-81
2024/03/28 01:25:04;;;;;;;;;;;;;;;17.05;60.34;98678.13;5077118;28;19966;-81
2024/03/28 01:27:29;;;;;;;;;;;;;;;17.07;59.94;98668.03;5077327;28;19913;-82
2024/03/28 01:29:54;;;;;;;;;;;;;;;17.09;60.08;98686.47;5079049;28;19923;-79
2024/03/28 01:32:20;;;;;;;;;;;;;;;17.08;60.42;98667.00;5078238;28;20285;-81
2024/03/28 01:34:45;;;;;;;;;;;;;;;17.09;60.15;98665.97;5078082;28;19913;-81
2024/03/28 01:37:11;;;;;;;;;;;;;;;17.11;60.05;98657.72;5076841;28;20313;-81
2024/03/28 01:39:36;;;;;;;;;;;;;;;17.21;59.91;98639.22;5078117;28;19912;-81
2024/03/28 01:42:02;;;;;;;;;;;;;;;17.12;59.90;98635.34;5076847;28;19913;-80
2024/03/28 01:44:28;;;;;;;;;;;;;;;17.12;59.78;98624.66;5078201;28;19909;-81
2024/03/28 01:46:53;;;;;;;;;;;;;;;17.06;59.98;98626.41;5078122;28;19919;-80
2024/03/28 01:49:18;;;;;;;;;;;;;;;17.09;59.86;98625.97;5077949;28;19920;-80
2024/03/28 01:51:44;;;;;;;;;;;;;;;17.10;59.65;98618.78;5076826;28;19912;-80
2024/03/28 01:54:11;;;;;;;;;;;;;;;17.13;59.48;98629.75;5076923;28;20046;-80
2024/03/28 01:56:36;;;;;;;;;;;;;;;17.18;59.27;98630.91;5078435;28;19912;-80
2024/03/28 01:59:03;;;;;;;;;;;;;;;17.17;59.18;98640.75;5078210;28;20294;-81
2024/03/28 02:01:28;;;;;;;;;;;;;;;17.13;59.09;98653.78;5077849;28;19970;-80
2024/03/28 02:03:54;;;;;;;;;;;;;;;17.16;58.87;98660.47;5077856;28;20318;-81
2024/03/28 02:06:19;;;;;;;;;;;;;;;17.18;58.91;98671.72;5078151;28;20385;-81
2024/03/28 02:08:44;;;;;;;;;;;;;;;17.20;59.04;98696.28;5076559;28;19917;-80
2024/03/28 02:11:10;;;;;;;;;;;;;;;17.27;58.35;98704.94;5077913;28;19963;-81
2024/03/28 02:13:35;;;;;;;;;;;;;;;17.22;58.87;98715.53;5077925;28;20046;-80
2024/03/28 02:16:00;;;;;;;;;;;;;;;17.23;58.56;98716.34;5076916;28;20061;-80
2024/03/28 02:18:25;;;;;;;;;;;;;;;17.21;58.50;98713.09;5077934;28;19913;-81
2024/03/28 02:20:51;;;;;;;;;;;;;;;17.23;58.34;98716.34;5078019;28;20407;-80
2024/03/28 02:23:16;;;;;;;;;;;;;;;17.17;58.40;98709.31;5073993;28;19912;-80
2024/03/28 02:25:42;;;;;;;;;;;;;;;17.19;58.20;98691.19;5073243;28;19935;-80
2024/03/28 02:28:08;;;;;;;;;;;;;;;17.19;58.00;98664.53;5073308;28;20008;-80
2024/03/28 02:30:33;;;;;;;;;;;;;;;17.21;57.66;98657.88;5074756;28;19991;-80
2024/03/28 02:32:58;;;;;;;;;;;;;;;17.25;57.54;98637.69;5074528;28;20300;-80
2024/03/28 02:35:24;;;;;;;;;;;;;;;17.28;57.13;98668.41;5074466;28;19970;-80
2024/03/28 02:37:49;;;;;;;;;;;;;;;17.23;57.11;98669.13;5073467;28;19912;-80
2024/03/28 02:40:14;;;;;;;;;;;;;;;17.24;56.97;98680.59;5074594;28;20408;-80
2024/03/28 02:42:39;;;;;;;;;;;;;;;17.24;57.02;98662.75;5074354;28;19935;-80
2024/03/28 02:45:05;;;;;;;;;;;;;;;17.29;57.14;98678.03;5074467;28;20007;-80
2024/03/28 02:47:30;;;;;;;;;;;;;;;17.27;56.75;98677.47;5075822;28;19966;-80
2024/03/28 02:49:55;;;;;;;;;;;;;;;17.26;56.87;98681.19;5072938;28;20023;-80
2024/03/28 02:52:21;;;;;;;;;;;;;;;17.24;56.94;98696.63;5074179;28;19919;-80
2024/03/28 02:54:46;;;;;;;;;;;;;;;17.26;56.75;98705.19;5074171;28;19912;-80
2024/03/28 02:57:20;;;;;;;;;;;;;;;17.31;56.61;98697.25;5074051;28;20367;-80
2024/03/28 02:59:46;;;;;;;;;;;;;;;17.28;56.56;98676.41;5073888;28;20294;-80
2024/03/28 03:02:11;;;;;;;;;;;;;;;17.23;56.60;98695.00;5073856;28;19961;-81
2024/03/28 03:04:36;;;;;;;;;;;;;;;17.26;56.78;98686.50;5073894;28;20089;-80
2024/03/28 03:07:01;;;;;;;;;;;;;;;17.27;56.65;98696.13;5072768;28;19912;-80
2024/03/28 03:09:27;;;;;;;;;;;;;;;17.27;56.77;98688.13;5073814;28;20326;-81
2024/03/28 03:11:52;;;;;;;;;;;;;;;17.25;56.83;98691.03;5074074;28;19919;-80
2024/03/28 03:14:17;;;;;;;;;;;;;;;17.23;57.02;98685.13;5073703;28;19917;-80
2024/03/28 03:16:43;;;;;;;;;;;;;;;17.28;56.92;98684.41;5074051;28;20360;-80
2024/03/28 03:19:08;;;;;;;;;;;;;;;17.24;57.11;98688.63;5073531;28;19966;-80
2024/03/28 03:21:35;;;;;;;;;;;;;;;17.24;56.97;98683.28;5073695;28;19913;-81
2024/03/28 03:24:00;;;;;;;;;;;;;;;17.20;57.12;98674.13;5073460;28;19940;-80
2024/03/28 03:26:30;;;;;;;;;;;;;;;17.20;56.90;98668.81;5073414;28;19959;-81
2024/03/28 03:34:36;;;;;;;;;;;;;;;17.21;56.92;98670.41;5072507;28;19981;-80
2024/03/28 03:37:18;;;;;;;;;;;;;;;17.20;56.91;98645.59;5073219;28;19912;-81
2024/03/28 03:39:43;;;;;;;;;;;;;;;17.20;56.89;98642.94;5073236;28;20375;-80
2024/03/28 03:42:09;;;;;;;;;;;;;;;17.19;56.79;98644.00;5073169;28;19956;-81
2024/03/28 03:44:34;;;;;;;;;;;;;;;17.17;56.89;98654.09;5073253;28;19920;-79
2024/03/28 03:47:00;;;;;;;;;;;;;;;17.12;57.12;98657.50;5071855;28;20008;-80
2024/03/28 03:49:25;;;;;;;;;;;;;;;17.14;56.83;98654.56;5073079;28;19979;-80
2024/03/28 03:51:51;;;;;;;;;;;;;;;17.18;56.78;98662.91;5073084;28;19920;-80
2024/03/28 03:54:16;;;;;;;;;;;;;;;17.11;56.71;98677.22;5071891;28;19920;-81
2024/03/28 03:56:41;;;;;;;;;;;;;;;17.13;56.60;98676.97;5072928;28;19919;-81
2024/03/28 03:59:06;;;;;;;;;;;;;;;17.10;56.92;98678.25;5073393;28;19939;-80
2024/03/28 04:01:32;;;;;;;;;;;;;;;17.13;56.91;98693.78;5073240;28;19912;-79
2024/03/28 04:03:57;;;;;;;;;;;;;;;17.10;56.86;98680.94;5072623;28;19971;-81
2024/03/28 04:06:22;;;;;;;;;;;;;;;17.09;56.98;98689.97;5073188;28;20400;-81
2024/03/28 04:08:48;;;;;;;;;;;;;;;17.09;57.00;98697.97;5072578;28;19920;-80
2024/03/28 04:11:13;;;;;;;;;;;;;;;17.11;57.14;98681.72;5072718;28;20303;-80
2024/03/28 04:13:38;;;;;;;;;;;;;;;17.13;56.75;98693.78;5072377;28;20633;-81
2024/03/28 04:16:04;;;;;;;;;;;;;;;17.12;56.78;98694.81;5072248;28;19908;-80
2024/03/28 04:18:29;;;;;;;;;;;;;;;17.14;56.66;98683.91;5071309;28;19912;-80
2024/03/28 04:20:54;;;;;;;;;;;;;;;17.18;56.11;98700.25;5071064;28;19909;-79
2024/03/28 04:23:19;;;;;;;;;;;;;;;17.12;56.09;98676.16;5072357;28;19919;-80
2024/03/28 04:25:52;;;;;;;;;;;;;;;17.12;55.97;98670.81;5072158;28;19912;-80
2024/03/28 04:28:17;;;;;;;;;;;;;;;17.15;55.88;98658.88;5070776;28;19982;-80
2024/03/28 04:30:42;;;;;;;;;;;;;;;17.20;55.62;98650.94;5072200;28;20380;-80
2024/03/28 04:33:08;;;;;;;;;;;;;;;17.26;55.53;98662.50;5072343;28;19919;-81
2024/03/28 04:35:33;;;;;;;;;;;;;;;17.29;55.19;98641.47;5072100;28;19913;-81
2024/03/28 04:37:58;;;;;;;;;;;;;;;17.32;55.08;98640.19;5072062;28;19913;-80
2024/03/28 04:40:24;;;;;;;;;;;;;;;17.42;55.01;98625.13;5070838;28;20313;-81
2024/03/28 04:42:52;;;;;;;;;;;;;;;17.42;54.57;98643.00;5072211;28;20460;-80
2024/03/28 04:45:18;;;;;;;;;;;;;;;17.43;54.61;98642.75;5071747;28;20332;-80
2024/03/28 04:47:43;;;;;;;;;;;;;;;17.46;54.44;98654.81;5072040;28;20477;-80
2024/03/28 04:50:09;;;;;;;;;;;;;;;17.47;54.51;98630.53;5071906;28;19917;-80
2024/03/28 04:52:34;;;;;;;;;;;;;;;17.50;54.46;98644.44;5072054;28;19912;-80
2024/03/28 04:54:59;;;;;;;;;;;;;;;17.52;54.33;98645.00;5071964;28;19912;-80
2024/03/28 04:57:25;;;;;;;;;;;;;;;17.58;54.51;98626.16;5071996;28;19966;-80
2024/03/28 04:59:50;;;;;;;;;;;;;;;17.55;54.33;98631.19;5070972;28;19920;-81
2024/03/28 05:02:15;;;;;;;;;;;;;;;17.55;54.61;98621.31;5071891;28;19969;-80
2024/03/28 05:04:41;;;;;;;;;;;;;;;17.58;54.30;98620.81;5071891;28;19912;-80
2024/03/28 05:07:07;;;;;;;;;;;;;;;17.58;54.30;98606.66;5070621;28;20304;-80
2024/03/28 05:09:33;;;;;;;;;;;;;;;17.57;54.39;98591.72;5071825;28;19939;-81
2024/03/28 05:11:58;;;;;;;;;;;;;;;17.58;54.33;98596.81;5071959;28;19991;-80
2024/03/28 05:14:23;;;;;;;;;;;;;;;17.58;54.01;98607.47;5070297;28;20042;-81
2024/03/28 05:16:49;;;;;;;;;;;;;;;17.58;54.14;98607.47;5071624;28;19913;-79
2024/03/28 05:19:14;;;;;;;;;;;;;;;17.63;54.16;98598.72;5071735;28;19909;-81
2024/03/28 05:21:39;;;;;;;;;;;;;;;17.60;53.91;98594.69;5070910;28;20339;-81
2024/03/28 05:24:05;;;;;;;;;;;;;;;17.62;53.80;98603.25;5070414;28;20381;-80
2024/03/28 05:26:30;;;;;;;;;;;;;;;17.65;53.80;98592.09;5070235;28;19935;-80
2024/03/28 05:28:55;;;;;;;;;;;;;;;17.67;53.72;98592.69;5071669;28;20322;-81
2024/03/28 05:31:21;;;;;;;;;;;;;;;17.72;53.66;98583.94;5071575;28;19912;-81
2024/03/28 05:33:46;;;;;;;;;;;;;;;17.71;53.30;98585.78;5071432;28;19913;-81
2024/03/28 05:36:11;;;;;;;;;;;;;;;17.72;53.25;98608.75;5070097;28;19919;-81
2024/03/28 05:38:37;;;;;;;;;;;;;;;17.69;53.11;98585.22;5071671;28;19913;-80
2024/03/28 05:41:02;;;;;;;;;;;;;;;17.71;53.11;98593.81;5071297;28;19912;-80
2024/03/28 05:43:28;;;;;;;;;;;;;;;17.74;52.84;98595.97;5071448;28;19913;-80
2024/03/28 05:45:53;;;;;;;;;;;;;;;17.76;52.65;98591.19;5071234;28;19912;-80
2024/03/28 05:48:19;;;;;;;;;;;;;;;17.79;52.85;98601.38;5071457;28;20370;-81
2024/03/28 05:50:44;;;;;;;;;;;;;;;17.82;52.60;98609.94;5070299;28;20006;-80
2024/03/28 05:53:10;;;;;;;;;;;;;;;17.85;52.17;98620.97;5071387;28;19999;-81
2024/03/28 05:55:35;;;;;;;;;;;;;;;17.87;52.51;98624.22;5071103;28;19908;-81
2024/03/28 05:58:01;;;;;;;;;;;;;;;17.91;52.29;98616.50;5072688;28;19919;-80
2024/03/28 06:00:26;;;;;;;;;;;;;;;17.90;52.23;98615.69;5075062;28;19916;-80
2024/03/28 06:02:51;;;;;;;;;;;;;;;17.96;52.36;98630.72;5074830;28;19921;-80
2024/03/28 06:05:16;;;;;;;;;;;;;;;18.00;52.16;98639.06;5075360;28;19916;-81
2024/03/28 06:07:42;;;;;;;;;;;;;;;18.01;52.31;98630.00;5074807;28;19913;-81
2024/03/28 06:10:07;;;;;;;;;;;;;;;18.03;52.34;98625.19;5074353;28;19928;-80
2024/03/28 06:12:32;;;;;;;;;;;;;;;18.05;52.33;98639.94;5072974;28;19912;-79
2024/03/28 06:14:58;;;;;;;;;;;;;;;18.02;52.52;98624.41;5074355;28;19989;-80
2024/03/28 06:17:23;;;;;;;;;;;;;;;18.02;52.50;98635.09;5074580;28;19913;-80
2024/03/28 06:19:48;;;;;;;;;;;;;;;18.02;52.60;98642.28;5074115;28;19923;-80
2024/03/28 06:22:13;;;;;;;;;;;;;;;18.01;52.67;98632.66;5074612;28;19974;-79
2024/03/28 06:24:39;;;;;;;;;;;;;;;18.01;52.72;98622.78;5074512;28;20304;-80
2024/03/28 06:27:05;;;;;;;;;;;;;;;18.04;52.70;98624.16;5074105;28;19920;-80
2024/03/28 06:29:36;;;;;;;;;;;;;;;18.07;52.81;98621.78;5072717;28;19917;-81
2024/03/28 06:32:02;;;;;;;;;;;;;;;18.06;52.79;98614.03;5073990;28;19989;-81
2024/03/28 06:34:27;;;;;;;;;;;;;;;18.09;52.88;98626.88;5073118;28;20400;-81
2024/03/28 06:36:52;;;;;;;;;;;;;;;18.08;53.13;98625.25;5074538;28;19987;-79
2024/03/28 06:39:17;;;;;;;;;;;;;;;18.10;53.04;98626.63;5074426;28;19912;-81
2024/03/28 06:41:43;;;;;;;;;;;;;;;18.10;53.02;98628.50;5074350;28;19908;-80
2024/03/28 06:44:08;;;;;;;;;;;;;;;18.08;53.32;98649.31;5073606;28;19982;-81
2024/03/28 06:46:33;;;;;;;;;;;;;;;18.10;53.32;98661.34;5073780;28;20352;-81
2024/03/28 06:48:58;;;;;;;;;;;;;;;18.11;53.23;98670.19;5074267;28;20019;-81
2024/03/28 06:51:24;;;;;;;;;;;;;;;18.11;53.45;98683.53;5073919;28;19966;-79
2024/03/28 06:53:49;;;;;;;;;;;;;;;18.13;53.32;98691.31;5084959;28;20406;-80
2024/03/28 06:56:17;;;;;;;;;;;;;;;18.14;53.52;98715.09;5071089;28;20465;-80
2024/03/28 06:58:42;;;;;;;;;;;;;;;18.22;53.03;98712.00;5073607;28;19920;-80
2024/03/28 07:01:08;;;;;;;;;;;;;;;18.23;53.50;98699.44;5073351;28;19920;-79
2024/03/28 07:03:33;;;;;;;;;;;;;;;18.29;53.44;98714.50;5073246;28;19978;-80
2024/03/28 07:05:58;;;;;;;;;;;;;;;18.34;53.30;98714.56;5073635;28;20369;-79
2024/03/28 07:08:23;;;;;;;;;;;;;;;18.39;53.23;98720.78;5073177;28;19913;-81
2024/03/28 07:10:49;;;;;;;;;;;;;;;18.42;52.97;98727.47;5073054;28;19970;-80
2024/03/28 07:13:14;;;;;;;;;;;;;;;18.48;52.82;98715.00;5073392;28;19958;-79
2024/03/28 07:15:39;;;;;;;;;;;;;;;18.49;53.38;98716.59;5071787;28;20332;-80
2024/03/28 07:18:05;;;;;;;;;;;;;;;18.54;52.77;98711.31;5073342;28;20250;-80
2024/03/28 07:20:30;;;;;;;;;;;;;;;18.58;53.35;98712.44;5073390;28;19947;-80
2024/03/28 07:22:55;;;;;;;;;;;;;;;18.61;52.83;98703.94;5071125;28;20397;-80
2024/03/28 07:25:21;;;;;;;;;;;;;;;18.62;53.55;98697.56;5069917;28;19924;-81
2024/03/28 07:27:46;;;;;;;;;;;;;;;18.67;52.80;98694.94;5064872;28;19923;-79
2024/03/28 07:30:12;;;;;;;;;;;;;;;18.72;52.82;98689.66;5072268;28;19986;-80
2024/03/28 07:32:37;;;;;;;;;;;;;;;18.82;52.71;98702.31;5072376;28;19924;-80
2024/03/28 07:35:03;;;;;;;;;;;;;;;18.86;53.06;98692.75;5063355;28;19913;-80
2024/03/28 07:37:28;;;;;;;;;;;;;;;18.95;52.64;98720.66;5067975;28;19917;-81
2024/03/28 07:39:53;;;;;;;;;;;;;;;19.02;52.59;98729.28;5072712;28;19947;-82
2024/03/28 07:42:19;;;;;;;;;;;;;;;19.09;52.51;98727.22;5072003;28;19923;-79
2024/03/28 07:44:44;;;;;;;;;;;;;;;19.13;52.50;98738.22;5072079;28;19916;-80
2024/03/28 07:47:09;;;;;;;;;;;;;;;19.21;52.38;98751.13;5072911;28;19961;-80
2024/03/28 07:49:34;;;;;;;;;;;;;;;19.30;52.19;98749.59;5071630;28;20377;-81
2024/03/28 07:52:01;;;;;;;;;;;;;;;19.36;51.91;98754.78;5072116;28;19948;-80
2024/03/28 07:54:27;;;;;;;;;;;;;;;19.44;51.84;98756.19;5069920;28;19916;-79
2024/03/28 07:56:52;;;;;;;;;;;;;;;19.45;52.03;98748.97;5067755;28;20427;-81
2024/03/28 07:59:18;;;;;;;;;;;;;;;19.52;51.64;98760.28;5070321;28;19923;-81
2024/03/28 08:01:43;;;;;;;;;;;;;;;19.56;51.77;98764.91;5071534;28;19920;-80
2024/03/28 08:04:08;;;;;;;;;;;;;;;19.64;51.66;98760.94;5071924;28;20013;-81
2024/03/28 08:06:33;;;;;;;;;;;;;;;19.69;51.79;98763.66;5071905;28;20308;-80
2024/03/28 08:08:59;;;;;;;;;;;;;;;19.77;51.76;98765.84;5071895;28;19920;-79
2024/03/28 08:11:24;;;;;;;;;;;;;;;19.83;51.58;98753.31;5071544;28;19928;-80
2024/03/28 08:13:51;;;;;;;;;;;;;;;19.91;51.31;98740.25;5072017;28;19912;-81
2024/03/28 08:16:17;;;;;;;;;;;;;;;19.94;51.01;98728.19;5072009;28;20404;-81
2024/03/28 08:18:42;;;;;;;;;;;;;;;20.02;51.31;98735.75;5071736;28;19913;-80
2024/03/28 08:21:07;;;;;;;;;;;;;;;20.08;50.86;98740.09;5070305;28;19917;-80
2024/03/28 08:23:33;;;;;;;;;;;;;;;20.10;50.56;98737.16;5072181;28;19912;-80
2024/03/28 08:25:59;;;;;;;;;;;;;;;20.15;50.71;98739.88;5069305;28;19916;-81
2024/03/28 08:28:24;;;;;;;;;;;;;;;20.19;50.66;98752.50;5068669;28;20308;-81
2024/03/28 08:30:49;;;;;;;;;;;;;;;20.23;50.41;98760.81;5071523;28;20396;-80
2024/03/28 08:33:14;;;;;;;;;;;;;;;20.21;50.46;98766.44;5071733;28;19923;-80
2024/03/28 08:35:41;;;;;;;;;;;;;;;20.21;50.39;98765.63;5071816;28;19916;-81
2024/03/28 08:38:10;;;;;;;;;;;;;;;20.19;50.38;98775.81;5068345;28;19928;-81
2024/03/28 08:40:35;;;;;;;;;;;;;;;20.14;50.55;98776.59;5068330;28;19916;-81
2024/03/28 08:43:01;;;;;;;;;;;;;;;20.14;50.32;98773.91;5071652;28;19912;-79
2024/03/28 08:45:27;;;;;;;;;;;;;;;20.16;50.34;98771.78;5087015;28;19912;-81
2024/03/28 08:47:54;;;;;;;;;;;;;;;20.30;50.18;98769.44;5071429;28;19999;-81
2024/03/28 08:50:19;;;;;;;;;;;;;;;20.42;50.12;98762.03;5071545;28;19973;-80
2024/03/28 08:52:45;;;;;;;;;;;;;;;20.60;49.93;98766.94;5070540;28;19938;-80
2024/03/28 08:55:11;;;;;;;;;;;;;;;20.80;49.58;98755.47;5069061;28;19943;-80
2024/03/28 08:57:39;;;;;;;;;;;;;;;20.94;49.37;98770.03;5070287;28;19928;-81
2024/03/28 09:00:10;;;;;;;;;;;;;;;21.02;49.31;98759.84;5070413;28;19947;-81
2024/03/28 09:02:36;;;;;;;;;;;;;;;21.08;49.11;98759.59;5071261;28;19982;-81
2024/03/28 09:05:01;;;;;;;;;;;;;;;21.08;48.93;98762.28;5068222;28;19913;-80
2024/03/28 09:07:27;;;;;;;;;;;;;;;21.13;48.94;98759.59;5070369;28;20495;-81
2024/03/28 09:09:52;;;;;;;;;;;;;;;21.13;48.70;98758.81;5068728;28;19925;-81
2024/03/28 09:12:17;;;;;;;;;;;;;;;21.17;48.70;98751.81;5071700;28;19969;-81
2024/03/28 09:14:43;;;;;;;;;;;;;;;21.24;48.56;98742.47;5068895;28;19916;-81
2024/03/28 09:17:08;;;;;;;;;;;;;;;21.28;48.02;98739.25;5069009;28;19917;-81
2024/03/28 09:19:34;;;;;;;;;;;;;;;21.38;48.00;98750.00;5070799;28;20312;-81
2024/03/28 09:21:59;;;;;;;;;;;;;;;21.49;47.71;98736.31;5068389;28;20380;-80
2024/03/28 09:24:25;;;;;;;;;;;;;;;21.68;47.44;98752.72;5058721;28;19917;-80
2024/03/28 09:26:52;;;;;;;;;;;;;;;21.87;46.97;98742.22;5071237;28;19916;-80
2024/03/28 09:29:20;;;;;;;;;;;;;;;22.05;46.93;98739.00;5084653;28;19920;-80
2024/03/28 09:31:49;;;;;;;;;;;;;;;22.14;45.21;98728.47;5072360;28;20381;-80
2024/03/28 09:34:14;;;;;;;;;;;;;;;22.34;45.88;98717.69;5073931;28;19982;-79
2024/03/28 09:36:41;;;;;;;;;;;;;;;22.44;45.10;98720.34;5074346;28;20274;-80
2024/03/28 09:39:07;;;;;;;;;;;;;;;22.54;44.96;98724.06;5074097;28;19917;-80
2024/03/28 09:41:33;;;;;;;;;;;;;;;22.69;45.04;98724.00;5074924;28;19920;-79
2024/03/28 09:44:00;;;;;;;;;;;;;;;22.80;45.04;98723.69;5058047;28;20377;-79
2024/03/28 09:46:28;;;;;;;;;;;;;;;23.02;44.44;98746.72;5054536;28;20397;-80
2024/03/28 09:48:54;;;;;;;;;;;;;;;23.20;43.85;98747.97;5059366;28;20022;-80
2024/03/28 09:51:21;;;;;;;;;;;;;;;23.34;43.92;98744.38;5074994;28;19912;-80
2024/03/28 09:53:47;;;;;;;;;;;;;;;23.42;43.37;98765.34;5066900;28;20328;-80
2024/03/28 09:56:13;;;;;;;;;;;;;;;23.43;43.54;98763.44;5073024;28;19916;-80
2024/03/28 09:58:38;;;;;;;;;;;;;;;23.41;42.13;98768.31;5074811;28;20401;-80
2024/03/28 10:01:04;;;;;;;;;;;;;;;23.39;43.09;98768.59;5074270;28;20007;-81
2024/03/28 10:03:32;;;;;;;;;;;;;;;23.45;42.30;98772.84;5068618;28;20324;-80
2024/03/28 10:05:57;;;;;;;;;;;;;;;23.42;43.02;98770.72;5064785;28;19919;-80
2024/03/28 10:08:23;;;;;;;;;;;;;;;23.43;43.34;98777.72;5074321;28;20006;-80
2024/03/28 10:10:49;;;;;;;;;;;;;;;23.36;43.43;98782.63;5074351;28;19981;-80
2024/03/28 10:13:14;;;;;;;;;;;;;;;23.31;43.66;98771.88;5074555;28;19924;-80
2024/03/28 10:15:41;;;;;;;;;;;;;;;23.23;43.75;98759.00;5073266;28;19970;-80
2024/03/28 10:18:06;;;;;;;;;;;;;;;23.17;43.60;98762.81;5073391;28;20379;-80
2024/03/28 10:20:32;;;;;;;;;;;;;;;23.24;43.94;98751.72;5072420;28;19916;-81
2024/03/28 10:22:57;;;;;;;;;;;;;;;23.30;43.71;98781.03;5072821;28;20400;-80
2024/03/28 10:25:23;;;;;;;;;;;;;;;23.52;43.26;98769.84;5074305;28;19919;-80
2024/03/28 10:27:49;;;;;;;;;;;;;;;23.69;42.73;98775.66;5072412;28;20293;-80
2024/03/28 10:30:21;;;;;;;;;;;;;;;23.73;42.86;98786.69;5074145;28;20003;-80
2024/03/28 10:32:57;;;;;;;;;;;;;;;23.60;43.14;98776.53;5072770;28;19923;-80
2024/03/28 10:35:22;;;;;;;;;;;;;;;23.59;43.55;98775.75;5064346;28;19939;-80
2024/03/28 10:37:47;;;;;;;;;;;;;;;23.60;43.17;98763.06;5070505;28;19920;-80
2024/03/28 10:40:13;;;;;;;;;;;;;;;23.62;42.87;98775.19;5068112;28;19917;-80
2024/03/28 10:42:41;;;;;;;;;;;;;;;23.63;43.16;98768.69;5060161;28;19927;-80
2024/03/28 10:45:09;;;;;;;;;;;;;;;23.68;42.99;98768.66;5073884;28;19927;-79
2024/03/28 10:47:35;;;;;;;;;;;;;;;23.83;42.69;98772.34;5073544;28;19912;-79
2024/03/28 10:50:27;;;;;;;;;;;;;;;23.91;41.81;98769.84;5070470;28;19936;-81
2024/03/28 10:52:54;;;;;;;;;;;;;;;23.96;41.87;98777.88;5048619;28;19917;-81
2024/03/28 10:55:22;;;;;;;;;;;;;;;24.08;42.15;98772.91;5065424;28;20007;-80
2024/03/28 10:57:48;;;;;;;;;;;;;;;24.24;41.82;98772.75;5072837;28;19916;-80
2024/03/28 11:00:14;;;;;;;;;;;;;;;24.21;42.08;98757.94;5072743;28;19919;-78
2024/03/28 11:02:40;;;;;;;;;;;;;;;24.23;40.89;98761.16;5068650;28;19920;-79
2024/03/28 11:05:08;;;;;;;;;;;;;;;24.28;41.69;98758.44;5072084;28;19916;-80
2024/03/28 11:07:34;;;;;;;;;;;;;;;24.30;41.12;98780.53;5071458;28;20395;-80
2024/03/28 11:09:59;;;;;;;;;;;;;;;24.40;41.30;98769.63;5070959;28;20015;-80
2024/03/28 11:12:28;;;;;;;;;;;;;;;24.45;41.13;98763.38;5062537;28;19951;-80
2024/03/28 11:14:58;;;;;;;;;;;;;;;24.42;40.90;98784.72;5070359;28;19931;-80
2024/03/28 11:17:23;;;;;;;;;;;;;;;24.35;41.19;98763.47;5073318;28;19919;-79
2024/03/28 11:20:02;;;;;;;;;;;;;;;24.37;40.46;98769.41;5071914;28;19913;-80
2024/03/28 11:22:29;;;;;;;;;;;;;;;24.38;40.58;98766.41;5071271;28;19920;-79
2024/03/28 11:24:54;;;;;;;;;;;;;;;24.59;40.28;98763.50;5067303;28;19963;-77
2024/03/28 11:27:22;;;;;;;;;;;;;;;24.77;39.55;98775.44;5072834;28;19986;-79
2024/03/28 11:29:51;;;;;;;;;;;;;;;24.93;39.61;98774.13;5073205;28;19916;-79
2024/03/28 11:32:25;;;;;;;;;;;;;;;25.13;39.42;98787.38;5071110;28;20396;-80
2024/03/28 11:34:50;;;;;;;;;;;;;;;25.31;38.86;98775.00;5060348;28;19917;-80
2024/03/28 11:37:22;;;;;;;;;;;;;;;25.59;38.57;98775.91;5053309;28;19916;-80
2024/03/28 11:39:47;;;;;;;;;;;;;;;25.74;37.26;98764.09;5052479;28;19979;-79
2024/03/28 11:42:16;;;;;;;;;;;;;;;25.94;35.90;98769.13;5054598;28;19933;-81
2024/03/28 11:44:41;;;;;;;;;;;;;;;26.10;37.17;98751.56;5052412;28;19921;-80
2024/03/28 11:47:08;;;;;;;;;;;;;;;26.21;36.99;98768.41;5052627;28;19973;-80
2024/03/28 11:49:34;;;;;;;;;;;;;;;26.31;37.28;98760.09;5051604;28;19923;-79
2024/03/28 11:52:00;;;;;;;;;;;;;;;26.37;35.50;98756.22;5088261;28;20311;-80
2024/03/28 11:54:25;;;;;;;;;;;;;;;26.37;35.74;98771.66;5070836;28;20362;-80
2024/03/28 11:56:50;;;;;;;;;;;;;;;26.16;36.71;98760.38;5053833;28;19923;-80
2024/03/28 11:59:22;;;;;;;;;;;;;;;26.17;35.23;98754.66;5054156;28;20080;-80
2024/03/28 12:02:00;;;;;;;;;;;;;;;26.33;35.90;98746.28;5070901;28;19913;-79
2024/03/28 12:04:29;;;;;;;;;;;;;;;26.51;36.76;98750.78;5071178;28;19960;-79
2024/03/28 12:06:55;;;;;;;;;;;;;;;26.52;36.34;98753.19;5069841;28;20362;-79
2024/03/28 12:09:20;;;;;;;;;;;;;;;26.52;36.59;98750.50;5070668;28;19921;-79
2024/03/28 12:11:46;;;;;;;;;;;;;;;26.55;36.03;98751.78;5061238;28;19917;-79
2024/03/28 12:14:12;;;;;;;;;;;;;;;26.38;35.37;98747.00;5066374;28;20026;-81
2024/03/28 12:16:44;;;;;;;;;;;;;;;26.36;35.87;98732.97;5067929;28;19955;-81
2024/03/28 12:19:09;;;;;;;;;;;;;;;26.37;35.59;98734.56;5072130;28;19939;-80
2024/03/28 12:21:34;;;;;;;;;;;;;;;26.33;35.14;98744.38;5072051;28;19913;-80
2024/03/28 12:23:59;;;;;;;;;;;;;;;26.19;35.08;98733.53;5071813;28;20373;-80
2024/03/28 12:26:26;;;;;;;;;;;;;;;26.13;36.03;98723.09;5071757;28;19908;-79
2024/03/28 12:28:52;;;;;;;;;;;;;;;26.16;35.71;98714.38;5072042;28;21866;-79
2024/03/28 12:31:22;;;;;;;;;;;;;;;26.12;35.64;98719.59;5062736;28;19923;-80
2024/03/28 12:33:47;;;;;;;;;;;;;;;26.07;36.00;98706.16;5051945;28;19913;-79
2024/03/28 12:36:15;;;;;;;;;;;;;;;26.03;36.16;98702.44;5063500;28;19924;-79
2024/03/28 12:38:44;;;;;;;;;;;;;;;26.06;36.42;98709.16;5069412;28;20408;-80
2024/03/28 12:41:16;;;;;;;;;;;;;;;26.05;35.80;98702.16;5066083;28;19924;-78
2024/03/28 12:43:42;;;;;;;;;;;;;;;26.09;35.23;98695.84;5070403;28;20408;-80
2024/03/28 12:46:08;;;;;;;;;;;;;;;26.07;35.91;98699.94;5071731;28;19916;-79